sensor_id;sensor_type;location;lat;lon;timestamp;P1;durP1;ratioP1;P2;durP2;ratioP2
69083;SDS011;56185;48.526;9.044;2023-04-01T00:00:18;4.05;;;0.90;;
69083;SDS011;56185;48.526;9.044;2023-04-01T00:02:44;4.40;;;0.80;;
69083;SDS011;56185;48.526;9.044;2023-04-01T00:05:10;2.87;;;0.80;;
69083;SDS011;56185;48.526;9.044;2023-04-01T00:07:36;2.25;;;1.00;;
69083;SDS011;56185;48.526;9.044;2023-04-01T00:10:02;2.75;;;0.85;;
69083;SDS011;56185;48.526;9.044;2023-04-01T00:12:31;1.60;;;0.73;;
69083;SDS011;56185;48.526;9.044;2023-04-01T00:14:56;2.30;;;0.90;;
69083;SDS011;56185;48.526;9.044;2023-04-01T00:17:22;3.78;;;0.77;;
69083;SDS011;56185;48.526;9.044;2023-04-01T00:19:47;1.97;;;0.83;;
69083;SDS011;56185;48.526;9.044;2023-04-01T00:22:12;1.67;;;0.70;;
69083;SDS011;56185;48.526;9.044;2023-04-01T00:24:38;1.37;;;0.80;;
69083;SDS011;56185;48.526;9.044;2023-04-01T00:27:03;2.60;;;0.90;;
69083;SDS011;56185;48.526;9.044;2023-04-01T00:29:29;2.10;;;0.90;;
69083;SDS011;56185;48.526;9.044;2023-04-01T00:31:55;3.17;;;0.90;;
69083;SDS011;56185;48.526;9.044;2023-04-01T00:34:20;1.30;;;0.70;;
69083;SDS011;56185;48.526;9.044;2023-04-01T00:36:45;1.30;;;0.70;;
69083;SDS011;56185;48.526;9.044;2023-04-01T00:39:11;1.10;;;0.50;;
69083;SDS011;56185;48.526;9.044;2023-04-01T00:41:36;2.80;;;0.80;;
69083;SDS011;56185;48.526;9.044;2023-04-01T00:46:48;2.50;;;0.80;;
69083;SDS011;56185;48.526;9.044;2023-04-01T00:49:13;1.75;;;0.95;;
69083;SDS011;56185;48.526;9.044;2023-04-01T00:51:41;2.83;;;0.90;;
69083;SDS011;56185;48.526;9.044;2023-04-01T00:54:08;1.40;;;0.63;;
69083;SDS011;56185;48.526;9.044;2023-04-01T00:56:37;1.90;;;0.85;;
69083;SDS011;56185;48.526;9.044;2023-04-01T00:59:08;2.45;;;0.80;;
69083;SDS011;56185;48.526;9.044;2023-04-01T01:01:38;1.73;;;0.80;;
69083;SDS011;56185;48.526;9.044;2023-04-01T01:04:03;2.30;;;0.85;;
69083;SDS011;56185;48.526;9.044;2023-04-01T01:09:47;1.35;;;0.70;;
69083;SDS011;56185;48.526;9.044;2023-04-01T01:29:40;4.25;;;0.93;;
69083;SDS011;56185;48.526;9.044;2023-04-01T01:37:05;1.98;;;0.55;;
69083;SDS011;56185;48.526;9.044;2023-04-01T01:39:35;4.00;;;0.50;;
69083;SDS011;56185;48.526;9.044;2023-04-01T01:42:02;1.75;;;0.68;;
69083;SDS011;56185;48.526;9.044;2023-04-01T01:44:31;1.58;;;0.80;;
69083;SDS011;56185;48.526;9.044;2023-04-01T01:46:58;3.35;;;0.77;;
69083;SDS011;56185;48.526;9.044;2023-04-01T01:49:24;0.90;;;0.60;;
69083;SDS011;56185;48.526;9.044;2023-04-01T01:51:51;1.67;;;0.90;;
69083;SDS011;56185;48.526;9.044;2023-04-01T01:54:17;0.70;;;0.60;;
69083;SDS011;56185;48.526;9.044;2023-04-01T01:56:44;0.75;;;0.47;;
69083;SDS011;56185;48.526;9.044;2023-04-01T01:59:13;1.48;;;0.73;;
69083;SDS011;56185;48.526;9.044;2023-04-01T02:01:41;1.40;;;0.57;;
69083;SDS011;56185;48.526;9.044;2023-04-01T02:04:09;1.23;;;0.70;;
69083;SDS011;56185;48.526;9.044;2023-04-01T02:06:37;1.13;;;0.60;;
69083;SDS011;56185;48.526;9.044;2023-04-01T02:09:05;2.55;;;0.80;;
69083;SDS011;56185;48.526;9.044;2023-04-01T02:11:40;0.98;;;0.60;;
69083;SDS011;56185;48.526;9.044;2023-04-01T02:14:11;1.27;;;0.60;;
69083;SDS011;56185;48.526;9.044;2023-04-01T02:19:16;1.10;;;0.60;;
69083;SDS011;56185;48.526;9.044;2023-04-01T02:21:42;1.58;;;0.80;;
69083;SDS011;56185;48.526;9.044;2023-04-01T02:24:10;1.02;;;0.65;;
69083;SDS011;56185;48.526;9.044;2023-04-01T02:26:38;0.70;;;0.50;;
69083;SDS011;56185;48.526;9.044;2023-04-01T02:29:04;1.77;;;0.60;;
69083;SDS011;56185;48.526;9.044;2023-04-01T02:31:31;2.20;;;0.70;;
69083;SDS011;56185;48.526;9.044;2023-04-01T02:33:57;1.98;;;0.88;;
69083;SDS011;56185;48.526;9.044;2023-04-01T02:36:22;0.73;;;0.50;;
69083;SDS011;56185;48.526;9.044;2023-04-01T02:38:48;1.73;;;0.90;;
69083;SDS011;56185;48.526;9.044;2023-04-01T02:41:14;2.20;;;0.70;;
69083;SDS011;56185;48.526;9.044;2023-04-01T02:43:40;0.55;;;0.47;;
69083;SDS011;56185;48.526;9.044;2023-04-01T02:46:05;3.22;;;0.68;;
69083;SDS011;56185;48.526;9.044;2023-04-01T02:48:30;1.15;;;0.60;;
69083;SDS011;56185;48.526;9.044;2023-04-01T02:50:55;0.80;;;0.50;;
69083;SDS011;56185;48.526;9.044;2023-04-01T02:53:21;1.17;;;0.60;;
69083;SDS011;56185;48.526;9.044;2023-04-01T02:55:46;0.95;;;0.57;;
69083;SDS011;56185;48.526;9.044;2023-04-01T02:58:12;0.93;;;0.60;;
69083;SDS011;56185;48.526;9.044;2023-04-01T03:00:37;0.60;;;0.47;;
69083;SDS011;56185;48.526;9.044;2023-04-01T03:03:03;1.30;;;0.50;;
69083;SDS011;56185;48.526;9.044;2023-04-01T03:05:28;1.85;;;0.65;;
69083;SDS011;56185;48.526;9.044;2023-04-01T03:07:54;1.60;;;0.60;;
69083;SDS011;56185;48.526;9.044;2023-04-01T03:10:19;1.27;;;0.60;;
69083;SDS011;56185;48.526;9.044;2023-04-01T03:12:45;0.77;;;0.60;;
69083;SDS011;56185;48.526;9.044;2023-04-01T03:15:11;0.93;;;0.50;;
69083;SDS011;56185;48.526;9.044;2023-04-01T03:17:38;1.27;;;0.52;;
69083;SDS011;56185;48.526;9.044;2023-04-01T03:20:03;0.47;;;0.43;;
69083;SDS011;56185;48.526;9.044;2023-04-01T03:22:29;1.10;;;0.50;;
69083;SDS011;56185;48.526;9.044;2023-04-01T03:24:54;1.50;;;0.63;;
69083;SDS011;56185;48.526;9.044;2023-04-01T03:27:19;0.70;;;0.47;;
69083;SDS011;56185;48.526;9.044;2023-04-01T03:29:44;1.50;;;0.60;;
69083;SDS011;56185;48.526;9.044;2023-04-01T03:32:10;0.63;;;0.50;;
69083;SDS011;56185;48.526;9.044;2023-04-01T03:34:35;0.77;;;0.53;;
69083;SDS011;56185;48.526;9.044;2023-04-01T03:37:00;0.60;;;0.50;;
69083;SDS011;56185;48.526;9.044;2023-04-01T03:39:25;1.00;;;0.60;;
69083;SDS011;56185;48.526;9.044;2023-04-01T03:41:51;0.70;;;0.50;;
69083;SDS011;56185;48.526;9.044;2023-04-01T03:44:16;0.57;;;0.50;;
69083;SDS011;56185;48.526;9.044;2023-04-01T03:46:41;0.85;;;0.57;;
69083;SDS011;56185;48.526;9.044;2023-04-01T03:49:07;1.53;;;0.60;;
69083;SDS011;56185;48.526;9.044;2023-04-01T03:51:33;0.90;;;0.60;;
69083;SDS011;56185;48.526;9.044;2023-04-01T03:53:59;0.53;;;0.50;;
69083;SDS011;56185;48.526;9.044;2023-04-01T03:56:24;0.98;;;0.57;;
69083;SDS011;56185;48.526;9.044;2023-04-01T03:58:49;2.77;;;0.70;;
69083;SDS011;56185;48.526;9.044;2023-04-01T04:01:18;0.83;;;0.60;;
69083;SDS011;56185;48.526;9.044;2023-04-01T04:03:45;1.90;;;0.50;;
69083;SDS011;56185;48.526;9.044;2023-04-01T04:06:11;2.45;;;0.70;;
69083;SDS011;56185;48.526;9.044;2023-04-01T04:08:37;0.82;;;0.60;;
69083;SDS011;56185;48.526;9.044;2023-04-01T04:11:03;1.35;;;0.70;;
69083;SDS011;56185;48.526;9.044;2023-04-01T04:13:28;1.58;;;0.77;;
69083;SDS011;56185;48.526;9.044;2023-04-01T04:15:53;1.58;;;0.60;;
69083;SDS011;56185;48.526;9.044;2023-04-01T04:18:19;0.98;;;0.60;;
69083;SDS011;56185;48.526;9.044;2023-04-01T04:20:44;1.73;;;0.70;;
69083;SDS011;56185;48.526;9.044;2023-04-01T04:23:10;1.25;;;0.70;;
69083;SDS011;56185;48.526;9.044;2023-04-01T04:25:35;1.87;;;0.70;;
69083;SDS011;56185;48.526;9.044;2023-04-01T04:28:01;2.50;;;0.60;;
69083;SDS011;56185;48.526;9.044;2023-04-01T04:30:26;1.73;;;0.70;;
69083;SDS011;56185;48.526;9.044;2023-04-01T04:32:51;1.13;;;0.60;;
69083;SDS011;56185;48.526;9.044;2023-04-01T04:35:16;1.90;;;0.80;;
69083;SDS011;56185;48.526;9.044;2023-04-01T04:37:42;1.77;;;0.80;;
69083;SDS011;56185;48.526;9.044;2023-04-01T04:40:07;1.17;;;0.80;;
69083;SDS011;56185;48.526;9.044;2023-04-01T04:42:33;1.20;;;0.60;;
69083;SDS011;56185;48.526;9.044;2023-04-01T04:44:58;1.60;;;0.70;;
69083;SDS011;56185;48.526;9.044;2023-04-01T04:47:23;2.23;;;0.87;;
69083;SDS011;56185;48.526;9.044;2023-04-01T04:49:48;1.50;;;0.80;;
69083;SDS011;56185;48.526;9.044;2023-04-01T04:52:14;2.20;;;0.90;;
69083;SDS011;56185;48.526;9.044;2023-04-01T04:54:39;2.28;;;0.80;;
69083;SDS011;56185;48.526;9.044;2023-04-01T04:57:04;2.37;;;0.77;;
69083;SDS011;56185;48.526;9.044;2023-04-01T04:59:30;3.40;;;0.80;;
69083;SDS011;56185;48.526;9.044;2023-04-01T05:01:55;2.25;;;0.70;;
69083;SDS011;56185;48.526;9.044;2023-04-01T05:04:21;1.90;;;0.70;;
69083;SDS011;56185;48.526;9.044;2023-04-01T05:06:46;1.75;;;0.82;;
69083;SDS011;56185;48.526;9.044;2023-04-01T05:09:11;0.87;;;0.50;;
69083;SDS011;56185;48.526;9.044;2023-04-01T05:11:37;1.52;;;0.63;;
69083;SDS011;56185;48.526;9.044;2023-04-01T05:14:02;1.15;;;0.50;;
69083;SDS011;56185;48.526;9.044;2023-04-01T05:16:27;1.48;;;0.70;;
69083;SDS011;56185;48.526;9.044;2023-04-01T05:18:52;1.45;;;0.88;;
69083;SDS011;56185;48.526;9.044;2023-04-01T05:21:18;1.27;;;0.70;;
69083;SDS011;56185;48.526;9.044;2023-04-01T05:23:43;3.28;;;0.85;;
69083;SDS011;56185;48.526;9.044;2023-04-01T05:26:12;2.13;;;0.80;;
69083;SDS011;56185;48.526;9.044;2023-04-01T05:28:39;2.80;;;0.70;;
69083;SDS011;56185;48.526;9.044;2023-04-01T05:31:05;1.20;;;0.60;;
69083;SDS011;56185;48.526;9.044;2023-04-01T05:33:31;2.05;;;0.68;;
69083;SDS011;56185;48.526;9.044;2023-04-01T05:35:56;2.17;;;0.88;;
69083;SDS011;56185;48.526;9.044;2023-04-01T05:38:37;1.65;;;0.77;;
69083;SDS011;56185;48.526;9.044;2023-04-01T05:41:02;0.90;;;0.60;;
69083;SDS011;56185;48.526;9.044;2023-04-01T05:43:28;2.78;;;0.65;;
69083;SDS011;56185;48.526;9.044;2023-04-01T05:45:53;1.50;;;0.60;;
69083;SDS011;56185;48.526;9.044;2023-04-01T05:48:19;1.10;;;0.60;;
69083;SDS011;56185;48.526;9.044;2023-04-01T05:50:44;1.90;;;0.80;;
69083;SDS011;56185;48.526;9.044;2023-04-01T05:53:09;1.23;;;0.63;;
69083;SDS011;56185;48.526;9.044;2023-04-01T05:55:35;1.52;;;0.70;;
69083;SDS011;56185;48.526;9.044;2023-04-01T05:58:00;1.15;;;0.57;;
69083;SDS011;56185;48.526;9.044;2023-04-01T06:00:25;1.10;;;0.60;;
69083;SDS011;56185;48.526;9.044;2023-04-01T06:02:51;1.00;;;0.60;;
69083;SDS011;56185;48.526;9.044;2023-04-01T06:05:23;1.20;;;0.50;;
69083;SDS011;56185;48.526;9.044;2023-04-01T06:07:55;1.67;;;0.70;;
69083;SDS011;56185;48.526;9.044;2023-04-01T06:10:25;1.98;;;0.98;;
69083;SDS011;56185;48.526;9.044;2023-04-01T06:13:41;1.05;;;0.70;;
69083;SDS011;56185;48.526;9.044;2023-04-01T06:16:05;0.70;;;0.50;;
69083;SDS011;56185;48.526;9.044;2023-04-01T06:19:15;1.42;;;0.63;;
69083;SDS011;56185;48.526;9.044;2023-04-01T06:30:25;2.33;;;1.00;;
69083;SDS011;56185;48.526;9.044;2023-04-01T06:35:25;1.40;;;0.77;;
69083;SDS011;56185;48.526;9.044;2023-04-01T06:38:22;1.40;;;0.70;;
69083;SDS011;56185;48.526;9.044;2023-04-01T06:49:12;2.55;;;1.20;;
69083;SDS011;56185;48.526;9.044;2023-04-01T06:52:05;3.10;;;1.13;;
69083;SDS011;56185;48.526;9.044;2023-04-01T06:55:02;1.27;;;0.75;;
69083;SDS011;56185;48.526;9.044;2023-04-01T06:57:47;2.38;;;0.68;;
69083;SDS011;56185;48.526;9.044;2023-04-01T07:00:16;0.50;;;0.50;;
69083;SDS011;56185;48.526;9.044;2023-04-01T07:05:27;0.65;;;0.50;;
69083;SDS011;56185;48.526;9.044;2023-04-01T07:07:57;3.25;;;0.68;;
69083;SDS011;56185;48.526;9.044;2023-04-01T07:10:39;1.40;;;0.65;;
69083;SDS011;56185;48.526;9.044;2023-04-01T07:13:31;1.75;;;0.70;;
69083;SDS011;56185;48.526;9.044;2023-04-01T07:15:59;3.78;;;0.80;;
69083;SDS011;56185;48.526;9.044;2023-04-01T07:18:33;2.03;;;0.70;;
69083;SDS011;56185;48.526;9.044;2023-04-01T07:21:04;2.10;;;0.70;;
69083;SDS011;56185;48.526;9.044;2023-04-01T07:23:39;1.77;;;0.80;;
69083;SDS011;56185;48.526;9.044;2023-04-01T07:26:28;2.75;;;0.88;;
69083;SDS011;56185;48.526;9.044;2023-04-01T07:28:53;0.90;;;0.57;;
69083;SDS011;56185;48.526;9.044;2023-04-01T07:31:39;1.10;;;0.70;;
69083;SDS011;56185;48.526;9.044;2023-04-01T07:42:16;5.10;;;1.70;;
69083;SDS011;56185;48.526;9.044;2023-04-01T07:45:11;5.43;;;2.33;;
69083;SDS011;56185;48.526;9.044;2023-04-01T07:55:56;3.40;;;1.20;;
69083;SDS011;56185;48.526;9.044;2023-04-01T07:58:55;3.47;;;1.13;;
69083;SDS011;56185;48.526;9.044;2023-04-01T08:01:47;3.17;;;1.20;;
69083;SDS011;56185;48.526;9.044;2023-04-01T08:07:15;1.63;;;0.97;;
69083;SDS011;56185;48.526;9.044;2023-04-01T08:15:18;5.15;;;1.42;;
69083;SDS011;56185;48.526;9.044;2023-04-01T08:20:57;3.35;;;1.23;;
69083;SDS011;56185;48.526;9.044;2023-04-01T08:23:30;2.20;;;0.90;;
69083;SDS011;56185;48.526;9.044;2023-04-01T08:26:04;2.92;;;1.10;;
69083;SDS011;56185;48.526;9.044;2023-04-01T08:31:16;2.45;;;1.20;;
69083;SDS011;56185;48.526;9.044;2023-04-01T08:33:47;3.35;;;1.58;;
69083;SDS011;56185;48.526;9.044;2023-04-01T08:38:59;1.65;;;0.80;;
69083;SDS011;56185;48.526;9.044;2023-04-01T08:47:30;3.00;;;1.00;;
69083;SDS011;56185;48.526;9.044;2023-04-01T08:50:06;2.60;;;1.15;;
69083;SDS011;56185;48.526;9.044;2023-04-01T08:52:36;2.28;;;1.02;;
69083;SDS011;56185;48.526;9.044;2023-04-01T08:58:11;2.13;;;1.27;;
69083;SDS011;56185;48.526;9.044;2023-04-01T09:01:26;3.15;;;1.60;;
69083;SDS011;56185;48.526;9.044;2023-04-01T09:09:52;2.53;;;1.30;;
69083;SDS011;56185;48.526;9.044;2023-04-01T09:18:13;2.92;;;1.00;;
69083;SDS011;56185;48.526;9.044;2023-04-01T09:31:32;2.83;;;1.40;;
69083;SDS011;56185;48.526;9.044;2023-04-01T09:39:37;1.75;;;1.08;;
69083;SDS011;56185;48.526;9.044;2023-04-01T09:53:39;1.65;;;0.90;;
69083;SDS011;56185;48.526;9.044;2023-04-01T10:13:23;2.20;;;1.25;;
69083;SDS011;56185;48.526;9.044;2023-04-01T10:16:09;4.10;;;2.08;;
69083;SDS011;56185;48.526;9.044;2023-04-01T10:38:19;2.42;;;1.00;;
69083;SDS011;56185;48.526;9.044;2023-04-01T10:43:45;1.90;;;1.00;;
69083;SDS011;56185;48.526;9.044;2023-04-01T10:49:23;1.27;;;0.90;;
69083;SDS011;56185;48.526;9.044;2023-04-01T11:00:23;2.75;;;0.80;;
69083;SDS011;56185;48.526;9.044;2023-04-01T11:02:57;1.58;;;0.52;;
69083;SDS011;56185;48.526;9.044;2023-04-01T11:11:33;2.17;;;1.00;;
69083;SDS011;56185;48.526;9.044;2023-04-01T11:22:52;1.10;;;0.80;;
69083;SDS011;56185;48.526;9.044;2023-04-01T11:31:10;1.00;;;0.70;;
69083;SDS011;56185;48.526;9.044;2023-04-01T11:33:50;2.03;;;0.85;;
69083;SDS011;56185;48.526;9.044;2023-04-01T11:39:32;1.83;;;0.80;;
69083;SDS011;56185;48.526;9.044;2023-04-01T11:44:31;1.13;;;0.70;;
69083;SDS011;56185;48.526;9.044;2023-04-01T11:52:44;2.28;;;0.70;;
69083;SDS011;56185;48.526;9.044;2023-04-01T11:55:23;1.45;;;0.70;;
69083;SDS011;56185;48.526;9.044;2023-04-01T12:03:21;1.00;;;0.70;;
69083;SDS011;56185;48.526;9.044;2023-04-01T12:19:27;4.43;;;0.90;;
69083;SDS011;56185;48.526;9.044;2023-04-01T12:22:10;1.05;;;0.60;;
69083;SDS011;56185;48.526;9.044;2023-04-01T12:41:52;1.30;;;0.80;;
69083;SDS011;56185;48.526;9.044;2023-04-01T12:44:36;0.80;;;0.63;;
69083;SDS011;56185;48.526;9.044;2023-04-01T12:52:42;2.05;;;0.95;;
69083;SDS011;56185;48.526;9.044;2023-04-01T12:55:46;2.28;;;1.15;;
69083;SDS011;56185;48.526;9.044;2023-04-01T13:01:18;0.90;;;0.65;;
69083;SDS011;56185;48.526;9.044;2023-04-01T13:15:07;0.85;;;0.50;;
69083;SDS011;56185;48.526;9.044;2023-04-01T13:23:09;0.80;;;0.50;;
69083;SDS011;56185;48.526;9.044;2023-04-01T13:28:56;1.20;;;0.70;;
69083;SDS011;56185;48.526;9.044;2023-04-01T13:31:49;0.47;;;0.40;;
69083;SDS011;56185;48.526;9.044;2023-04-01T13:37:18;2.45;;;0.85;;
69083;SDS011;56185;48.526;9.044;2023-04-01T13:43:09;1.00;;;0.65;;
69083;SDS011;56185;48.526;9.044;2023-04-01T13:48:48;1.30;;;0.60;;
69083;SDS011;56185;48.526;9.044;2023-04-01T13:58:57;1.75;;;0.65;;
69083;SDS011;56185;48.526;9.044;2023-04-01T14:01:41;1.00;;;0.70;;
69083;SDS011;56185;48.526;9.044;2023-04-01T14:04:30;2.88;;;1.00;;
69083;SDS011;56185;48.526;9.044;2023-04-01T14:07:21;1.50;;;0.60;;
69083;SDS011;56185;48.526;9.044;2023-04-01T14:10:07;1.70;;;0.80;;
69083;SDS011;56185;48.526;9.044;2023-04-01T14:12:57;1.88;;;1.20;;
69083;SDS011;56185;48.526;9.044;2023-04-01T14:26:31;0.93;;;0.63;;
69083;SDS011;56185;48.526;9.044;2023-04-01T14:34:52;5.85;;;1.02;;
69083;SDS011;56185;48.526;9.044;2023-04-01T14:49:52;1.42;;;0.80;;
69083;SDS011;56185;48.526;9.044;2023-04-01T14:51:46;1.10;;;0.70;;
69083;SDS011;56185;48.526;9.044;2023-04-01T14:56:42;2.88;;;0.68;;
69083;SDS011;56185;48.526;9.044;2023-04-01T14:59:10;1.00;;;0.70;;
69083;SDS011;56185;48.526;9.044;2023-04-01T15:04:40;0.90;;;0.73;;
69083;SDS011;56185;48.526;9.044;2023-04-01T15:07:35;1.60;;;0.80;;
69083;SDS011;56185;48.526;9.044;2023-04-01T15:24:24;1.65;;;0.90;;
69083;SDS011;56185;48.526;9.044;2023-04-01T15:26:58;1.10;;;0.65;;
69083;SDS011;56185;48.526;9.044;2023-04-01T15:40:38;1.75;;;0.70;;
69083;SDS011;56185;48.526;9.044;2023-04-01T15:43:21;1.35;;;0.70;;
69083;SDS011;56185;48.526;9.044;2023-04-01T15:46:14;1.60;;;0.88;;
69083;SDS011;56185;48.526;9.044;2023-04-01T15:54:19;2.47;;;1.50;;
69083;SDS011;56185;48.526;9.044;2023-04-01T16:59:36;1.75;;;1.20;;
69083;SDS011;56185;48.526;9.044;2023-04-01T17:02:13;4.78;;;1.30;;
69083;SDS011;56185;48.526;9.044;2023-04-01T17:04:48;4.20;;;1.08;;
69083;SDS011;56185;48.526;9.044;2023-04-01T17:15:31;1.83;;;1.10;;
69083;SDS011;56185;48.526;9.044;2023-04-01T17:29:09;3.45;;;2.20;;
69083;SDS011;56185;48.526;9.044;2023-04-01T17:34:27;3.28;;;1.60;;
69083;SDS011;56185;48.526;9.044;2023-04-01T17:37:04;4.72;;;1.90;;
69083;SDS011;56185;48.526;9.044;2023-04-01T17:42:46;2.92;;;1.30;;
69083;SDS011;56185;48.526;9.044;2023-04-01T17:48:03;3.13;;;1.40;;
69083;SDS011;56185;48.526;9.044;2023-04-01T17:50:36;2.60;;;1.13;;
69083;SDS011;56185;48.526;9.044;2023-04-01T17:53:20;1.70;;;1.10;;
69083;SDS011;56185;48.526;9.044;2023-04-01T17:58:46;3.35;;;1.40;;
69083;SDS011;56185;48.526;9.044;2023-04-01T18:12:40;2.10;;;1.20;;
69083;SDS011;56185;48.526;9.044;2023-04-01T18:15:31;2.80;;;1.70;;
69083;SDS011;56185;48.526;9.044;2023-04-01T18:23:30;2.60;;;1.20;;
69083;SDS011;56185;48.526;9.044;2023-04-01T18:26:08;1.75;;;1.20;;
69083;SDS011;56185;48.526;9.044;2023-04-01T18:28:38;1.77;;;1.20;;
69083;SDS011;56185;48.526;9.044;2023-04-01T18:31:19;2.70;;;1.40;;
69083;SDS011;56185;48.526;9.044;2023-04-01T18:33:54;2.00;;;1.27;;
69083;SDS011;56185;48.526;9.044;2023-04-01T18:44:42;1.13;;;0.80;;
69083;SDS011;56185;48.526;9.044;2023-04-01T18:47:20;0.90;;;0.70;;
69083;SDS011;56185;48.526;9.044;2023-04-01T18:50:02;1.13;;;0.65;;
69083;SDS011;56185;48.526;9.044;2023-04-01T18:52:42;1.95;;;1.10;;
69083;SDS011;56185;48.526;9.044;2023-04-01T18:55:21;2.35;;;1.52;;
69083;SDS011;56185;48.526;9.044;2023-04-01T19:00:43;1.83;;;0.93;;
69083;SDS011;56185;48.526;9.044;2023-04-01T19:09:16;3.63;;;2.25;;
69083;SDS011;56185;48.526;9.044;2023-04-01T19:11:54;2.28;;;1.60;;
69083;SDS011;56185;48.526;9.044;2023-04-01T19:18:07;1.92;;;1.60;;
69083;SDS011;56185;48.526;9.044;2023-04-01T19:21:04;1.95;;;1.45;;
69083;SDS011;56185;48.526;9.044;2023-04-01T19:26:26;3.17;;;1.77;;
69083;SDS011;56185;48.526;9.044;2023-04-01T19:29:03;3.45;;;1.70;;
69083;SDS011;56185;48.526;9.044;2023-04-01T19:31:50;2.35;;;1.60;;
69083;SDS011;56185;48.526;9.044;2023-04-01T19:34:27;2.95;;;1.80;;
69083;SDS011;56185;48.526;9.044;2023-04-01T19:39:57;3.05;;;1.20;;
69083;SDS011;56185;48.526;9.044;2023-04-01T19:47:56;1.52;;;0.90;;
69083;SDS011;56185;48.526;9.044;2023-04-01T19:50:49;1.20;;;0.70;;
69083;SDS011;56185;48.526;9.044;2023-04-01T19:56:19;1.48;;;0.80;;
69083;SDS011;56185;48.526;9.044;2023-04-01T20:04:19;1.38;;;0.80;;
69083;SDS011;56185;48.526;9.044;2023-04-01T20:07:03;1.77;;;1.10;;
69083;SDS011;56185;48.526;9.044;2023-04-01T20:18:13;1.77;;;0.90;;
69083;SDS011;56185;48.526;9.044;2023-04-01T20:20:40;1.70;;;0.90;;
69083;SDS011;56185;48.526;9.044;2023-04-01T20:23:39;2.90;;;1.25;;
69083;SDS011;56185;48.526;9.044;2023-04-01T20:26:08;2.45;;;1.40;;
69083;SDS011;56185;48.526;9.044;2023-04-01T20:29:02;2.47;;;1.55;;
69083;SDS011;56185;48.526;9.044;2023-04-01T20:31:41;1.90;;;1.42;;
69083;SDS011;56185;48.526;9.044;2023-04-01T20:36:36;2.78;;;1.65;;
69083;SDS011;56185;48.526;9.044;2023-04-01T20:42:23;3.75;;;1.60;;
69083;SDS011;56185;48.526;9.044;2023-04-01T20:47:42;4.60;;;2.17;;
69083;SDS011;56185;48.526;9.044;2023-04-01T20:58:24;4.88;;;2.63;;
69083;SDS011;56185;48.526;9.044;2023-04-01T21:06:31;4.53;;;2.50;;
69083;SDS011;56185;48.526;9.044;2023-04-01T21:09:11;6.32;;;3.83;;
69083;SDS011;56185;48.526;9.044;2023-04-01T21:12:03;8.43;;;4.18;;
69083;SDS011;56185;48.526;9.044;2023-04-01T21:14:51;5.93;;;3.25;;
69083;SDS011;56185;48.526;9.044;2023-04-01T21:23:11;8.13;;;3.22;;
69083;SDS011;56185;48.526;9.044;2023-04-01T21:28:58;4.05;;;2.50;;
69083;SDS011;56185;48.526;9.044;2023-04-01T21:31:53;7.28;;;4.57;;
69083;SDS011;56185;48.526;9.044;2023-04-01T21:37:08;7.85;;;4.25;;
69083;SDS011;56185;48.526;9.044;2023-04-01T21:56:22;2.53;;;1.80;;
69083;SDS011;56185;48.526;9.044;2023-04-01T22:09:50;1.92;;;1.15;;
69083;SDS011;56185;48.526;9.044;2023-04-01T22:17:53;1.80;;;1.20;;
69083;SDS011;56185;48.526;9.044;2023-04-01T22:25:42;2.38;;;1.20;;
69083;SDS011;56185;48.526;9.044;2023-04-01T22:28:22;3.47;;;1.50;;
69083;SDS011;56185;48.526;9.044;2023-04-01T22:30:52;1.75;;;1.20;;
69083;SDS011;56185;48.526;9.044;2023-04-01T22:41:56;1.50;;;1.00;;
69083;SDS011;56185;48.526;9.044;2023-04-01T22:44:38;1.40;;;0.90;;
69083;SDS011;56185;48.526;9.044;2023-04-01T22:52:46;1.42;;;0.80;;
69083;SDS011;56185;48.526;9.044;2023-04-01T22:55:15;1.95;;;0.90;;
69083;SDS011;56185;48.526;9.044;2023-04-01T23:00:29;1.95;;;1.05;;
69083;SDS011;56185;48.526;9.044;2023-04-01T23:03:20;1.10;;;0.80;;
69083;SDS011;56185;48.526;9.044;2023-04-01T23:05:55;1.52;;;0.90;;
69083;SDS011;56185;48.526;9.044;2023-04-01T23:11:19;2.80;;;0.80;;
69083;SDS011;56185;48.526;9.044;2023-04-01T23:13:50;1.05;;;0.60;;
69083;SDS011;56185;48.526;9.044;2023-04-01T23:16:27;1.00;;;0.73;;
69083;SDS011;56185;48.526;9.044;2023-04-01T23:21:45;0.77;;;0.60;;
69083;SDS011;56185;48.526;9.044;2023-04-01T23:24:16;1.20;;;0.60;;
69083;SDS011;56185;48.526;9.044;2023-04-01T23:29:54;1.65;;;0.70;;
69083;SDS011;56185;48.526;9.044;2023-04-01T23:32:19;1.60;;;0.80;;
69083;SDS011;56185;48.526;9.044;2023-04-01T23:34:49;0.98;;;0.70;;
69083;SDS011;56185;48.526;9.044;2023-04-01T23:37:16;1.05;;;0.70;;
69083;SDS011;56185;48.526;9.044;2023-04-01T23:39:46;2.78;;;0.60;;
69083;SDS011;56185;48.526;9.044;2023-04-01T23:44:48;2.17;;;0.70;;
69083;SDS011;56185;48.526;9.044;2023-04-01T23:47:16;0.90;;;0.70;;
69083;SDS011;56185;48.526;9.044;2023-04-01T23:49:46;0.80;;;0.70;;
69083;SDS011;56185;48.526;9.044;2023-04-01T23:52:25;1.85;;;0.90;;
69083;SDS011;56185;48.526;9.044;2023-04-01T23:54:58;1.10;;;0.70;;
69083;SDS011;56185;48.526;9.044;2023-04-01T23:57:32;0.80;;;0.70;;
